sensor_id;sensor_type;location;lat;lon;timestamp;temperature;humidity
18888;DHT22;9576;47.792;9.628;2022-07-18T00:00:03;18.10;96.60
18888;DHT22;9576;47.792;9.628;2022-07-18T00:03:06;18.00;96.80
18888;DHT22;9576;47.792;9.628;2022-07-18T00:06:08;18.00;96.90
18888;DHT22;9576;47.792;9.628;2022-07-18T00:09:10;17.90;96.50
18888;DHT22;9576;47.792;9.628;2022-07-18T00:12:12;17.90;96.40
18888;DHT22;9576;47.792;9.628;2022-07-18T00:15:16;17.80;96.80
18888;DHT22;9576;47.792;9.628;2022-07-18T00:18:18;17.80;96.70
18888;DHT22;9576;47.792;9.628;2022-07-18T00:21:20;17.70;96.30
18888;DHT22;9576;47.792;9.628;2022-07-18T00:24:23;17.70;96.80
18888;DHT22;9576;47.792;9.628;2022-07-18T00:27:25;17.70;96.40
18888;DHT22;9576;47.792;9.628;2022-07-18T00:30:28;17.70;96.50
18888;DHT22;9576;47.792;9.628;2022-07-18T00:33:31;17.70;97.10
18888;DHT22;9576;47.792;9.628;2022-07-18T00:36:33;17.60;97.20
18888;DHT22;9576;47.792;9.628;2022-07-18T00:39:35;17.50;98.00
18888;DHT22;9576;47.792;9.628;2022-07-18T00:42:37;17.40;98.80
18888;DHT22;9576;47.792;9.628;2022-07-18T00:45:43;17.30;99.40
18888;DHT22;9576;47.792;9.628;2022-07-18T00:48:46;17.30;99.90
18888;DHT22;9576;47.792;9.628;2022-07-18T00:51:49;17.30;99.90
18888;DHT22;9576;47.792;9.628;2022-07-18T00:54:51;17.20;99.90
18888;DHT22;9576;47.792;9.628;2022-07-18T00:57:53;17.10;99.90
18888;DHT22;9576;47.792;9.628;2022-07-18T01:00:58;17.10;99.90
18888;DHT22;9576;47.792;9.628;2022-07-18T01:04:19;17.00;99.90
18888;DHT22;9576;47.792;9.628;2022-07-18T01:07:22;17.00;99.90
18888;DHT22;9576;47.792;9.628;2022-07-18T01:10:24;17.00;99.90
18888;DHT22;9576;47.792;9.628;2022-07-18T01:13:27;16.90;99.90
18888;DHT22;9576;47.792;9.628;2022-07-18T01:16:31;16.90;99.90
18888;DHT22;9576;47.792;9.628;2022-07-18T01:19:33;16.90;99.90
18888;DHT22;9576;47.792;9.628;2022-07-18T01:22:39;16.90;99.90
18888;DHT22;9576;47.792;9.628;2022-07-18T01:25:42;16.80;99.90
18888;DHT22;9576;47.792;9.628;2022-07-18T01:28:44;16.70;99.90
18888;DHT22;9576;47.792;9.628;2022-07-18T01:31:47;16.70;99.90
18888;DHT22;9576;47.792;9.628;2022-07-18T01:34:50;16.70;99.90
18888;DHT22;9576;47.792;9.628;2022-07-18T01:37:55;16.70;99.90
18888;DHT22;9576;47.792;9.628;2022-07-18T01:40:58;16.70;99.90
18888;DHT22;9576;47.792;9.628;2022-07-18T01:44:01;16.60;99.90
18888;DHT22;9576;47.792;9.628;2022-07-18T01:47:05;16.50;99.90
18888;DHT22;9576;47.792;9.628;2022-07-18T01:50:08;16.50;99.90
18888;DHT22;9576;47.792;9.628;2022-07-18T01:53:12;16.50;99.90
18888;DHT22;9576;47.792;9.628;2022-07-18T01:56:14;16.50;99.90
18888;DHT22;9576;47.792;9.628;2022-07-18T01:59:16;16.50;99.90
18888;DHT22;9576;47.792;9.628;2022-07-18T02:02:19;16.40;99.90
18888;DHT22;9576;47.792;9.628;2022-07-18T02:05:21;16.30;99.90
18888;DHT22;9576;47.792;9.628;2022-07-18T02:08:24;16.20;99.90
18888;DHT22;9576;47.792;9.628;2022-07-18T02:11:26;16.20;99.90
18888;DHT22;9576;47.792;9.628;2022-07-18T02:14:28;16.20;99.90
18888;DHT22;9576;47.792;9.628;2022-07-18T02:17:31;16.00;99.90
18888;DHT22;9576;47.792;9.628;2022-07-18T02:20:33;16.00;99.90
18888;DHT22;9576;47.792;9.628;2022-07-18T02:23:37;16.00;99.90
18888;DHT22;9576;47.792;9.628;2022-07-18T02:26:39;15.90;99.90
18888;DHT22;9576;47.792;9.628;2022-07-18T02:29:41;15.90;99.90
18888;DHT22;9576;47.792;9.628;2022-07-18T02:32:43;15.90;99.90
18888;DHT22;9576;47.792;9.628;2022-07-18T02:35:45;15.90;99.90
18888;DHT22;9576;47.792;9.628;2022-07-18T02:38:49;15.90;99.90
18888;DHT22;9576;47.792;9.628;2022-07-18T02:41:51;15.90;99.90
18888;DHT22;9576;47.792;9.628;2022-07-18T02:44:53;15.90;99.90
18888;DHT22;9576;47.792;9.628;2022-07-18T02:47:55;15.90;99.90
18888;DHT22;9576;47.792;9.628;2022-07-18T02:50:57;15.80;99.90
18888;DHT22;9576;47.792;9.628;2022-07-18T02:54:01;15.70;99.90
18888;DHT22;9576;47.792;9.628;2022-07-18T02:57:03;15.70;99.90
18888;DHT22;9576;47.792;9.628;2022-07-18T03:00:09;15.70;99.90
18888;DHT22;9576;47.792;9.628;2022-07-18T03:03:12;15.60;99.90
18888;DHT22;9576;47.792;9.628;2022-07-18T03:06:14;15.50;99.90
18888;DHT22;9576;47.792;9.628;2022-07-18T03:09:18;15.50;99.90
18888;DHT22;9576;47.792;9.628;2022-07-18T03:12:20;15.50;99.90
18888;DHT22;9576;47.792;9.628;2022-07-18T03:15:22;15.50;99.90
18888;DHT22;9576;47.792;9.628;2022-07-18T03:18:24;15.50;99.90
18888;DHT22;9576;47.792;9.628;2022-07-18T03:21:26;15.50;99.90
18888;DHT22;9576;47.792;9.628;2022-07-18T03:24:30;15.50;99.90
18888;DHT22;9576;47.792;9.628;2022-07-18T03:27:32;15.40;99.90
18888;DHT22;9576;47.792;9.628;2022-07-18T03:30:34;15.40;99.90
18888;DHT22;9576;47.792;9.628;2022-07-18T03:33:36;15.40;99.90
18888;DHT22;9576;47.792;9.628;2022-07-18T03:36:39;15.30;99.90
18888;DHT22;9576;47.792;9.628;2022-07-18T03:39:43;15.30;99.90
18888;DHT22;9576;47.792;9.628;2022-07-18T03:42:45;15.20;99.90
18888;DHT22;9576;47.792;9.628;2022-07-18T03:45:47;15.20;99.90
18888;DHT22;9576;47.792;9.628;2022-07-18T03:48:49;15.20;99.90
18888;DHT22;9576;47.792;9.628;2022-07-18T03:51:51;15.20;99.90
18888;DHT22;9576;47.792;9.628;2022-07-18T03:54:57;15.10;99.90
18888;DHT22;9576;47.792;9.628;2022-07-18T03:58:02;15.10;99.90
18888;DHT22;9576;47.792;9.628;2022-07-18T04:01:04;15.10;99.90
18888;DHT22;9576;47.792;9.628;2022-07-18T04:04:06;15.20;99.90
18888;DHT22;9576;47.792;9.628;2022-07-18T04:07:08;15.20;99.90
18888;DHT22;9576;47.792;9.628;2022-07-18T04:10:12;15.20;99.90
18888;DHT22;9576;47.792;9.628;2022-07-18T04:13:14;15.20;99.90
18888;DHT22;9576;47.792;9.628;2022-07-18T04:16:16;15.20;99.90
18888;DHT22;9576;47.792;9.628;2022-07-18T04:19:19;15.20;99.90
18888;DHT22;9576;47.792;9.628;2022-07-18T04:22:22;15.20;99.90
18888;DHT22;9576;47.792;9.628;2022-07-18T04:25:28;15.20;99.90
18888;DHT22;9576;47.792;9.628;2022-07-18T04:28:31;15.20;99.90
18888;DHT22;9576;47.792;9.628;2022-07-18T04:31:33;15.20;99.90
18888;DHT22;9576;47.792;9.628;2022-07-18T04:34:35;15.30;99.90
18888;DHT22;9576;47.792;9.628;2022-07-18T04:37:38;15.30;99.90
18888;DHT22;9576;47.792;9.628;2022-07-18T04:40:42;15.30;99.90
18888;DHT22;9576;47.792;9.628;2022-07-18T04:43:44;15.30;99.90
18888;DHT22;9576;47.792;9.628;2022-07-18T04:46:46;15.30;99.90
18888;DHT22;9576;47.792;9.628;2022-07-18T04:49:48;15.30;99.90
18888;DHT22;9576;47.792;9.628;2022-07-18T04:52:51;15.40;99.90
18888;DHT22;9576;47.792;9.628;2022-07-18T04:55:55;15.50;99.90
18888;DHT22;9576;47.792;9.628;2022-07-18T04:58:57;15.50;99.90
18888;DHT22;9576;47.792;9.628;2022-07-18T05:01:59;15.50;99.90
18888;DHT22;9576;47.792;9.628;2022-07-18T05:05:01;15.50;99.90
18888;DHT22;9576;47.792;9.628;2022-07-18T05:08:04;15.60;99.90
18888;DHT22;9576;47.792;9.628;2022-07-18T05:11:08;15.70;99.90
18888;DHT22;9576;47.792;9.628;2022-07-18T05:14:10;15.70;99.90
18888;DHT22;9576;47.792;9.628;2022-07-18T05:17:12;15.80;99.90
18888;DHT22;9576;47.792;9.628;2022-07-18T05:20:16;15.80;99.90
18888;DHT22;9576;47.792;9.628;2022-07-18T05:23:18;15.90;99.90
18888;DHT22;9576;47.792;9.628;2022-07-18T05:26:22;16.00;99.90
18888;DHT22;9576;47.792;9.628;2022-07-18T05:29:24;16.10;99.90
18888;DHT22;9576;47.792;9.628;2022-07-18T05:32:27;16.10;99.90
18888;DHT22;9576;47.792;9.628;2022-07-18T05:35:29;16.20;99.90
18888;DHT22;9576;47.792;9.628;2022-07-18T05:38:31;16.20;99.90
18888;DHT22;9576;47.792;9.628;2022-07-18T05:41:35;16.20;99.90
18888;DHT22;9576;47.792;9.628;2022-07-18T05:44:37;16.20;99.90
18888;DHT22;9576;47.792;9.628;2022-07-18T05:47:39;16.20;99.90
18888;DHT22;9576;47.792;9.628;2022-07-18T05:50:41;16.30;99.90
18888;DHT22;9576;47.792;9.628;2022-07-18T05:53:44;16.30;99.90
18888;DHT22;9576;47.792;9.628;2022-07-18T05:56:50;16.40;99.90
18888;DHT22;9576;47.792;9.628;2022-07-18T05:59:52;16.50;99.90
18888;DHT22;9576;47.792;9.628;2022-07-18T06:02:54;16.50;99.90
18888;DHT22;9576;47.792;9.628;2022-07-18T06:05:57;16.60;99.90
18888;DHT22;9576;47.792;9.628;2022-07-18T06:08:59;16.70;99.90
18888;DHT22;9576;47.792;9.628;2022-07-18T06:12:03;16.80;99.90
18888;DHT22;9576;47.792;9.628;2022-07-18T06:15:06;16.90;99.90
18888;DHT22;9576;47.792;9.628;2022-07-18T06:18:09;16.90;99.90
18888;DHT22;9576;47.792;9.628;2022-07-18T06:21:11;17.00;99.90
18888;DHT22;9576;47.792;9.628;2022-07-18T06:24:13;17.00;99.90
18888;DHT22;9576;47.792;9.628;2022-07-18T06:27:17;17.10;99.90
18888;DHT22;9576;47.792;9.628;2022-07-18T06:30:19;17.20;99.90
18888;DHT22;9576;47.792;9.628;2022-07-18T06:33:23;17.30;99.90
18888;DHT22;9576;47.792;9.628;2022-07-18T06:36:26;17.30;99.90
18888;DHT22;9576;47.792;9.628;2022-07-18T06:39:29;17.40;99.90
18888;DHT22;9576;47.792;9.628;2022-07-18T06:42:33;17.60;99.90
18888;DHT22;9576;47.792;9.628;2022-07-18T06:45:36;17.70;99.90
18888;DHT22;9576;47.792;9.628;2022-07-18T06:48:38;17.70;99.90
18888;DHT22;9576;47.792;9.628;2022-07-18T06:51:40;17.80;99.90
18888;DHT22;9576;47.792;9.628;2022-07-18T06:54:42;17.90;99.90
18888;DHT22;9576;47.792;9.628;2022-07-18T06:57:46;17.90;99.90
18888;DHT22;9576;47.792;9.628;2022-07-18T07:00:48;18.00;99.90
18888;DHT22;9576;47.792;9.628;2022-07-18T07:03:50;18.20;99.90
18888;DHT22;9576;47.792;9.628;2022-07-18T07:06:54;18.30;99.90
18888;DHT22;9576;47.792;9.628;2022-07-18T07:09:56;18.40;99.90
18888;DHT22;9576;47.792;9.628;2022-07-18T07:13:00;18.50;99.90
18888;DHT22;9576;47.792;9.628;2022-07-18T07:16:03;18.60;99.90
18888;DHT22;9576;47.792;9.628;2022-07-18T07:19:05;18.60;99.90
18888;DHT22;9576;47.792;9.628;2022-07-18T07:22:08;18.70;99.90
18888;DHT22;9576;47.792;9.628;2022-07-18T07:25:10;18.90;99.90
18888;DHT22;9576;47.792;9.628;2022-07-18T07:28:14;19.00;99.80
18888;DHT22;9576;47.792;9.628;2022-07-18T07:31:16;19.20;99.60
18888;DHT22;9576;47.792;9.628;2022-07-18T07:34:19;19.40;99.50
18888;DHT22;9576;47.792;9.628;2022-07-18T07:37:21;19.50;99.00
18888;DHT22;9576;47.792;9.628;2022-07-18T07:40:25;19.70;98.70
18888;DHT22;9576;47.792;9.628;2022-07-18T07:43:29;19.90;98.90
18888;DHT22;9576;47.792;9.628;2022-07-18T07:46:31;20.00;98.90
18888;DHT22;9576;47.792;9.628;2022-07-18T07:49:33;20.10;98.80
18888;DHT22;9576;47.792;9.628;2022-07-18T07:52:38;20.20;98.40
18888;DHT22;9576;47.792;9.628;2022-07-18T07:55:40;20.30;98.50
18888;DHT22;9576;47.792;9.628;2022-07-18T07:58:44;20.40;98.10
18888;DHT22;9576;47.792;9.628;2022-07-18T08:01:46;20.50;98.40
18888;DHT22;9576;47.792;9.628;2022-07-18T08:04:48;20.70;99.00
18888;DHT22;9576;47.792;9.628;2022-07-18T08:07:50;20.90;98.50
18888;DHT22;9576;47.792;9.628;2022-07-18T08:10:53;21.10;98.40
18888;DHT22;9576;47.792;9.628;2022-07-18T08:13:56;21.20;98.00
18888;DHT22;9576;47.792;9.628;2022-07-18T08:16:58;21.30;98.50
18888;DHT22;9576;47.792;9.628;2022-07-18T08:20:01;21.50;98.90
18888;DHT22;9576;47.792;9.628;2022-07-18T08:23:05;21.70;98.20
18888;DHT22;9576;47.792;9.628;2022-07-18T08:26:08;21.80;97.90
18888;DHT22;9576;47.792;9.628;2022-07-18T08:29:11;22.00;98.20
18888;DHT22;9576;47.792;9.628;2022-07-18T08:32:14;22.20;97.70
18888;DHT22;9576;47.792;9.628;2022-07-18T08:35:16;22.20;98.20
18888;DHT22;9576;47.792;9.628;2022-07-18T08:38:18;22.50;97.70
18888;DHT22;9576;47.792;9.628;2022-07-18T08:41:23;22.60;98.50
18888;DHT22;9576;47.792;9.628;2022-07-18T08:44:27;22.70;98.20
18888;DHT22;9576;47.792;9.628;2022-07-18T08:47:30;22.90;98.00
18888;DHT22;9576;47.792;9.628;2022-07-18T08:50:32;23.00;97.90
18888;DHT22;9576;47.792;9.628;2022-07-18T08:53:35;23.10;97.60
18888;DHT22;9576;47.792;9.628;2022-07-18T08:56:38;23.30;97.20
18888;DHT22;9576;47.792;9.628;2022-07-18T08:59:41;23.50;97.70
18888;DHT22;9576;47.792;9.628;2022-07-18T09:02:43;23.50;96.70
18888;DHT22;9576;47.792;9.628;2022-07-18T09:05:46;23.80;97.30
18888;DHT22;9576;47.792;9.628;2022-07-18T09:08:58;23.90;96.60
18888;DHT22;9576;47.792;9.628;2022-07-18T09:12:03;24.10;96.40
18888;DHT22;9576;47.792;9.628;2022-07-18T09:15:08;24.10;96.30
18888;DHT22;9576;47.792;9.628;2022-07-18T09:18:11;24.20;96.10
18888;DHT22;9576;47.792;9.628;2022-07-18T09:21:14;24.30;95.40
18888;DHT22;9576;47.792;9.628;2022-07-18T09:24:18;24.40;95.20
18888;DHT22;9576;47.792;9.628;2022-07-18T09:27:25;24.50;94.90
18888;DHT22;9576;47.792;9.628;2022-07-18T09:30:30;24.70;94.30
18888;DHT22;9576;47.792;9.628;2022-07-18T09:33:36;24.90;93.60
18888;DHT22;9576;47.792;9.628;2022-07-18T09:36:54;25.00;93.80
18888;DHT22;9576;47.792;9.628;2022-07-18T09:40:14;25.10;92.80
18888;DHT22;9576;47.792;9.628;2022-07-18T09:43:17;25.20;93.80
18888;DHT22;9576;47.792;9.628;2022-07-18T09:46:22;25.30;93.60
18888;DHT22;9576;47.792;9.628;2022-07-18T09:49:28;25.50;92.90
18888;DHT22;9576;47.792;9.628;2022-07-18T09:52:31;25.60;93.00
18888;DHT22;9576;47.792;9.628;2022-07-18T09:55:33;25.80;94.40
18888;DHT22;9576;47.792;9.628;2022-07-18T09:58:37;25.90;92.80
18888;DHT22;9576;47.792;9.628;2022-07-18T10:01:41;25.90;92.20
18888;DHT22;9576;47.792;9.628;2022-07-18T10:04:44;25.90;92.00
18888;DHT22;9576;47.792;9.628;2022-07-18T10:07:47;26.20;94.10
18888;DHT22;9576;47.792;9.628;2022-07-18T10:10:51;26.40;91.30
18888;DHT22;9576;47.792;9.628;2022-07-18T10:13:54;26.40;90.80
18888;DHT22;9576;47.792;9.628;2022-07-18T10:16:59;26.50;90.50
18888;DHT22;9576;47.792;9.628;2022-07-18T10:20:03;26.50;90.70
18888;DHT22;9576;47.792;9.628;2022-07-18T10:23:10;26.60;89.50
18888;DHT22;9576;47.792;9.628;2022-07-18T10:26:14;26.70;90.60
18888;DHT22;9576;47.792;9.628;2022-07-18T10:29:17;26.90;90.20
18888;DHT22;9576;47.792;9.628;2022-07-18T10:32:31;27.20;90.00
18888;DHT22;9576;47.792;9.628;2022-07-18T10:35:59;27.50;90.00
18888;DHT22;9576;47.792;9.628;2022-07-18T10:39:06;27.60;85.30
18888;DHT22;9576;47.792;9.628;2022-07-18T10:42:16;27.80;84.90
18888;DHT22;9576;47.792;9.628;2022-07-18T10:45:42;27.90;84.40
18888;DHT22;9576;47.792;9.628;2022-07-18T10:48:49;28.00;82.40
18888;DHT22;9576;47.792;9.628;2022-07-18T10:51:51;28.10;82.70
18888;DHT22;9576;47.792;9.628;2022-07-18T10:58:38;28.20;81.90
18888;DHT22;9576;47.792;9.628;2022-07-18T11:01:47;28.50;81.60
18888;DHT22;9576;47.792;9.628;2022-07-18T11:04:51;28.80;81.00
18888;DHT22;9576;47.792;9.628;2022-07-18T11:08:17;29.00;82.40
18888;DHT22;9576;47.792;9.628;2022-07-18T11:11:20;29.20;74.90
18888;DHT22;9576;47.792;9.628;2022-07-18T11:18:05;29.60;76.00
18888;DHT22;9576;47.792;9.628;2022-07-18T11:21:16;29.60;74.30
18888;DHT22;9576;47.792;9.628;2022-07-18T11:24:19;29.60;76.00
18888;DHT22;9576;47.792;9.628;2022-07-18T11:27:22;29.70;75.50
18888;DHT22;9576;47.792;9.628;2022-07-18T11:30:25;29.60;75.30
18888;DHT22;9576;47.792;9.628;2022-07-18T11:33:29;29.90;76.20
18888;DHT22;9576;47.792;9.628;2022-07-18T11:36:33;30.20;79.20
18888;DHT22;9576;47.792;9.628;2022-07-18T11:39:35;30.50;80.40
18888;DHT22;9576;47.792;9.628;2022-07-18T11:42:38;31.00;75.10
18888;DHT22;9576;47.792;9.628;2022-07-18T11:45:40;31.00;72.90
18888;DHT22;9576;47.792;9.628;2022-07-18T11:48:44;31.00;69.90
18888;DHT22;9576;47.792;9.628;2022-07-18T11:51:49;30.90;67.00
18888;DHT22;9576;47.792;9.628;2022-07-18T11:54:51;30.70;71.00
18888;DHT22;9576;47.792;9.628;2022-07-18T11:57:53;30.90;71.80
18888;DHT22;9576;47.792;9.628;2022-07-18T12:00:58;31.00;72.40
18888;DHT22;9576;47.792;9.628;2022-07-18T12:04:01;31.20;74.00
18888;DHT22;9576;47.792;9.628;2022-07-18T12:07:17;31.60;75.10
18888;DHT22;9576;47.792;9.628;2022-07-18T12:10:19;32.20;76.70
18888;DHT22;9576;47.792;9.628;2022-07-18T12:13:22;32.50;71.80
18888;DHT22;9576;47.792;9.628;2022-07-18T12:16:32;32.90;77.00
18888;DHT22;9576;47.792;9.628;2022-07-18T12:19:36;33.40;75.70
18888;DHT22;9576;47.792;9.628;2022-07-18T12:23:07;33.70;66.40
18888;DHT22;9576;47.792;9.628;2022-07-18T12:26:26;34.10;67.90
18888;DHT22;9576;47.792;9.628;2022-07-18T12:29:28;34.20;68.90
18888;DHT22;9576;47.792;9.628;2022-07-18T12:32:38;34.10;65.80
18888;DHT22;9576;47.792;9.628;2022-07-18T12:35:41;34.20;68.90
18888;DHT22;9576;47.792;9.628;2022-07-18T12:39:01;34.30;67.90
18888;DHT22;9576;47.792;9.628;2022-07-18T12:42:06;34.70;68.50
18888;DHT22;9576;47.792;9.628;2022-07-18T12:45:10;35.00;71.10
18888;DHT22;9576;47.792;9.628;2022-07-18T12:48:14;35.00;65.20
18888;DHT22;9576;47.792;9.628;2022-07-18T12:51:16;35.10;67.10
18888;DHT22;9576;47.792;9.628;2022-07-18T12:54:20;34.90;62.00
18888;DHT22;9576;47.792;9.628;2022-07-18T12:57:22;35.00;71.20
18888;DHT22;9576;47.792;9.628;2022-07-18T13:00:25;34.90;63.00
18888;DHT22;9576;47.792;9.628;2022-07-18T13:03:27;35.00;64.80
18888;DHT22;9576;47.792;9.628;2022-07-18T13:06:29;35.40;64.10
18888;DHT22;9576;47.792;9.628;2022-07-18T13:09:34;35.40;67.60
18888;DHT22;9576;47.792;9.628;2022-07-18T13:12:37;35.30;60.30
18888;DHT22;9576;47.792;9.628;2022-07-18T13:15:39;35.50;63.00
18888;DHT22;9576;47.792;9.628;2022-07-18T13:18:41;35.70;61.30
18888;DHT22;9576;47.792;9.628;2022-07-18T13:21:44;36.10;61.30
18888;DHT22;9576;47.792;9.628;2022-07-18T13:24:48;36.30;64.80
18888;DHT22;9576;47.792;9.628;2022-07-18T13:27:50;36.30;61.00
18888;DHT22;9576;47.792;9.628;2022-07-18T13:30:53;36.20;59.10
18888;DHT22;9576;47.792;9.628;2022-07-18T13:33:55;36.30;64.90
18888;DHT22;9576;47.792;9.628;2022-07-18T13:36:57;36.50;59.50
18888;DHT22;9576;47.792;9.628;2022-07-18T13:40:00;36.70;64.10
18888;DHT22;9576;47.792;9.628;2022-07-18T13:43:03;37.10;64.50
18888;DHT22;9576;47.792;9.628;2022-07-18T13:46:05;37.30;61.10
18888;DHT22;9576;47.792;9.628;2022-07-18T13:49:07;37.10;61.60
18888;DHT22;9576;47.792;9.628;2022-07-18T13:52:10;37.00;59.00
18888;DHT22;9576;47.792;9.628;2022-07-18T13:55:13;37.10;62.80
18888;DHT22;9576;47.792;9.628;2022-07-18T13:58:15;36.50;58.30
18888;DHT22;9576;47.792;9.628;2022-07-18T14:01:18;36.60;57.40
18888;DHT22;9576;47.792;9.628;2022-07-18T14:04:20;36.90;58.90
18888;DHT22;9576;47.792;9.628;2022-07-18T14:07:22;36.90;59.30
18888;DHT22;9576;47.792;9.628;2022-07-18T14:10:26;36.90;58.00
18888;DHT22;9576;47.792;9.628;2022-07-18T14:13:28;37.00;58.30
18888;DHT22;9576;47.792;9.628;2022-07-18T14:16:31;37.30;60.30
18888;DHT22;9576;47.792;9.628;2022-07-18T14:19:33;37.50;63.30
18888;DHT22;9576;47.792;9.628;2022-07-18T14:22:38;38.00;57.90
18888;DHT22;9576;47.792;9.628;2022-07-18T14:25:42;38.40;58.80
18888;DHT22;9576;47.792;9.628;2022-07-18T14:28:44;38.70;55.70
18888;DHT22;9576;47.792;9.628;2022-07-18T14:31:46;38.80;58.30
18888;DHT22;9576;47.792;9.628;2022-07-18T14:34:48;39.30;58.70
18888;DHT22;9576;47.792;9.628;2022-07-18T14:37:50;39.70;60.50
18888;DHT22;9576;47.792;9.628;2022-07-18T14:40:54;40.20;59.60
18888;DHT22;9576;47.792;9.628;2022-07-18T14:43:56;40.20;54.40
18888;DHT22;9576;47.792;9.628;2022-07-18T14:46:58;40.20;55.10
18888;DHT22;9576;47.792;9.628;2022-07-18T14:50:01;39.80;53.30
18888;DHT22;9576;47.792;9.628;2022-07-18T14:53:03;39.90;56.60
18888;DHT22;9576;47.792;9.628;2022-07-18T14:56:07;40.30;56.40
18888;DHT22;9576;47.792;9.628;2022-07-18T14:59:09;40.90;57.60
18888;DHT22;9576;47.792;9.628;2022-07-18T15:02:11;41.20;54.40
18888;DHT22;9576;47.792;9.628;2022-07-18T15:05:15;41.50;57.70
18888;DHT22;9576;47.792;9.628;2022-07-18T15:08:17;41.90;51.90
18888;DHT22;9576;47.792;9.628;2022-07-18T15:11:20;42.00;52.70
18888;DHT22;9576;47.792;9.628;2022-07-18T15:14:25;42.50;53.50
18888;DHT22;9576;47.792;9.628;2022-07-18T15:17:28;42.80;55.40
18888;DHT22;9576;47.792;9.628;2022-07-18T15:20:30;43.10;54.30
18888;DHT22;9576;47.792;9.628;2022-07-18T15:23:32;43.30;52.90
18888;DHT22;9576;47.792;9.628;2022-07-18T15:26:36;43.50;53.40
18888;DHT22;9576;47.792;9.628;2022-07-18T15:29:38;43.70;50.50
18888;DHT22;9576;47.792;9.628;2022-07-18T15:32:40;44.10;53.30
18888;DHT22;9576;47.792;9.628;2022-07-18T15:35:43;44.50;52.90
18888;DHT22;9576;47.792;9.628;2022-07-18T15:38:46;45.00;51.20
18888;DHT22;9576;47.792;9.628;2022-07-18T15:41:49;45.40;51.00
18888;DHT22;9576;47.792;9.628;2022-07-18T15:44:51;45.60;49.30
18888;DHT22;9576;47.792;9.628;2022-07-18T15:47:53;45.60;51.90
18888;DHT22;9576;47.792;9.628;2022-07-18T15:50:56;44.60;47.70
18888;DHT22;9576;47.792;9.628;2022-07-18T15:53:58;44.00;50.80
18888;DHT22;9576;47.792;9.628;2022-07-18T15:57:02;43.50;53.00
18888;DHT22;9576;47.792;9.628;2022-07-18T16:00:05;43.60;48.50
18888;DHT22;9576;47.792;9.628;2022-07-18T16:03:07;43.80;51.70
18888;DHT22;9576;47.792;9.628;2022-07-18T16:06:09;44.50;50.80
18888;DHT22;9576;47.792;9.628;2022-07-18T16:09:11;45.30;48.90
18888;DHT22;9576;47.792;9.628;2022-07-18T16:12:15;45.50;49.30
18888;DHT22;9576;47.792;9.628;2022-07-18T16:15:17;45.80;49.70
18888;DHT22;9576;47.792;9.628;2022-07-18T16:18:19;46.10;48.80
18888;DHT22;9576;47.792;9.628;2022-07-18T16:21:21;46.20;46.60
18888;DHT22;9576;47.792;9.628;2022-07-18T16:24:24;46.60;48.30
18888;DHT22;9576;47.792;9.628;2022-07-18T16:27:27;47.10;51.00
18888;DHT22;9576;47.792;9.628;2022-07-18T16:30:30;47.50;47.10
18888;DHT22;9576;47.792;9.628;2022-07-18T16:33:32;48.00;46.80
18888;DHT22;9576;47.792;9.628;2022-07-18T16:36:34;48.00;44.20
18888;DHT22;9576;47.792;9.628;2022-07-18T16:39:36;47.70;49.50
18888;DHT22;9576;47.792;9.628;2022-07-18T16:42:40;47.40;47.30
18888;DHT22;9576;47.792;9.628;2022-07-18T16:45:43;47.20;46.30
18888;DHT22;9576;47.792;9.628;2022-07-18T16:48:46;47.20;47.60
18888;DHT22;9576;47.792;9.628;2022-07-18T16:51:49;46.80;49.50
18888;DHT22;9576;47.792;9.628;2022-07-18T16:54:52;44.40;45.50
18888;DHT22;9576;47.792;9.628;2022-07-18T16:57:56;43.00;49.90
18888;DHT22;9576;47.792;9.628;2022-07-18T17:00:58;42.60;48.10
18888;DHT22;9576;47.792;9.628;2022-07-18T17:04:01;42.40;49.90
18888;DHT22;9576;47.792;9.628;2022-07-18T17:07:04;41.90;48.40
18888;DHT22;9576;47.792;9.628;2022-07-18T17:10:07;41.40;49.00
18888;DHT22;9576;47.792;9.628;2022-07-18T17:13:11;41.30;49.20
18888;DHT22;9576;47.792;9.628;2022-07-18T17:16:14;40.80;50.20
18888;DHT22;9576;47.792;9.628;2022-07-18T17:19:16;41.50;50.80
18888;DHT22;9576;47.792;9.628;2022-07-18T17:22:18;41.90;49.00
18888;DHT22;9576;47.792;9.628;2022-07-18T17:25:21;42.50;49.60
18888;DHT22;9576;47.792;9.628;2022-07-18T17:28:25;42.50;51.00
18888;DHT22;9576;47.792;9.628;2022-07-18T17:31:27;42.20;52.30
18888;DHT22;9576;47.792;9.628;2022-07-18T17:34:30;41.30;51.20
18888;DHT22;9576;47.792;9.628;2022-07-18T17:37:33;40.00;52.90
18888;DHT22;9576;47.792;9.628;2022-07-18T17:40:38;38.60;53.10
18888;DHT22;9576;47.792;9.628;2022-07-18T17:43:42;37.40;55.80
18888;DHT22;9576;47.792;9.628;2022-07-18T17:46:50;36.10;55.80
18888;DHT22;9576;47.792;9.628;2022-07-18T17:49:53;35.20;57.20
18888;DHT22;9576;47.792;9.628;2022-07-18T17:52:55;34.50;59.70
18888;DHT22;9576;47.792;9.628;2022-07-18T17:55:58;33.80;58.10
18888;DHT22;9576;47.792;9.628;2022-07-18T17:59:01;33.30;61.80
18888;DHT22;9576;47.792;9.628;2022-07-18T18:02:04;32.90;62.10
18888;DHT22;9576;47.792;9.628;2022-07-18T18:05:07;32.40;62.90
18888;DHT22;9576;47.792;9.628;2022-07-18T18:08:09;32.00;62.90
18888;DHT22;9576;47.792;9.628;2022-07-18T18:11:11;31.70;63.60
18888;DHT22;9576;47.792;9.628;2022-07-18T18:14:15;31.40;64.90
18888;DHT22;9576;47.792;9.628;2022-07-18T18:17:18;31.20;65.10
18888;DHT22;9576;47.792;9.628;2022-07-18T18:20:20;31.00;66.40
18888;DHT22;9576;47.792;9.628;2022-07-18T18:23:22;30.80;67.70
18888;DHT22;9576;47.792;9.628;2022-07-18T18:26:25;30.60;66.90
18888;DHT22;9576;47.792;9.628;2022-07-18T18:29:28;30.40;68.40
18888;DHT22;9576;47.792;9.628;2022-07-18T18:32:30;30.20;68.70
18888;DHT22;9576;47.792;9.628;2022-07-18T18:35:33;30.00;68.80
18888;DHT22;9576;47.792;9.628;2022-07-18T18:38:35;29.70;70.00
18888;DHT22;9576;47.792;9.628;2022-07-18T18:41:37;29.50;72.10
18888;DHT22;9576;47.792;9.628;2022-07-18T18:44:40;29.30;74.10
18888;DHT22;9576;47.792;9.628;2022-07-18T18:47:43;29.10;74.20
18888;DHT22;9576;47.792;9.628;2022-07-18T18:50:45;28.80;75.60
18888;DHT22;9576;47.792;9.628;2022-07-18T18:53:47;28.60;76.90
18888;DHT22;9576;47.792;9.628;2022-07-18T18:56:49;28.40;77.30
18888;DHT22;9576;47.792;9.628;2022-07-18T18:59:53;28.20;76.10
18888;DHT22;9576;47.792;9.628;2022-07-18T19:02:56;28.00;76.50
18888;DHT22;9576;47.792;9.628;2022-07-18T19:05:58;27.70;76.00
18888;DHT22;9576;47.792;9.628;2022-07-18T19:09:01;27.60;75.60
18888;DHT22;9576;47.792;9.628;2022-07-18T19:12:03;27.30;76.60
18888;DHT22;9576;47.792;9.628;2022-07-18T19:15:08;27.10;76.40
18888;DHT22;9576;47.792;9.628;2022-07-18T19:18:11;27.00;76.60
18888;DHT22;9576;47.792;9.628;2022-07-18T19:21:13;26.80;77.40
18888;DHT22;9576;47.792;9.628;2022-07-18T19:24:15;26.70;77.40
18888;DHT22;9576;47.792;9.628;2022-07-18T19:27:17;26.50;76.80
18888;DHT22;9576;47.792;9.628;2022-07-18T19:30:21;26.40;77.10
18888;DHT22;9576;47.792;9.628;2022-07-18T19:33:24;26.20;76.40
18888;DHT22;9576;47.792;9.628;2022-07-18T19:36:26;26.10;77.00
18888;DHT22;9576;47.792;9.628;2022-07-18T19:39:28;26.00;77.60
18888;DHT22;9576;47.792;9.628;2022-07-18T19:42:30;25.90;78.00